METAR Data
IDs: Format: Raw Decoded Include TAF

Data at: 1351 UTC 07 Jul 2020

KJZI 071335Z AUTO 09004KT 5SM BR FEW005 FEW023 SCT049 24/24 A3003 RMK AO2
KJZI 071315Z AUTO 07003KT 2SM -RA FEW008 FEW020 SCT029 23/23 A3003 RMK AO2 LTG DSNT SW
KJZI 071255Z AUTO 00000KT 1SM +RA SCT008 BKN022 OVC027 23/23 A3004 RMK AO2 LTG DSNT SW P0014
KJZI 071235Z AUTO 00000KT 2 1/2SM -RA SCT025 BKN039 OVC045 24/24 A3004 RMK AO2
KJZI 071215Z AUTO 00000KT 2 1/2SM -RA SCT039 BKN047 OVC055 24/24 A3003 RMK AO2 LTG DSNT E AND SW
KJZI 071155Z AUTO 00000KT 3SM -RA FEW041 SCT050 24/24 A3003 RMK AO2 LTG DSNT E P0006
KJZI 071135Z AUTO 00000KT 3SM -RA FEW050 FEW080 FEW120 24/24 A3002 RMK AO2
KJZI 071115Z AUTO 00000KT 5SM -DZ FEW034 SCT048 BKN080 23/23 A3002 RMK AO2
KJZI 071055Z AUTO 00000KT 2 1/2SM -RA BKN036 BKN047 OVC120 24/24 A3002 RMK AO2 P0012
KJZI 071035Z AUTO 00000KT 4SM VCTS RA 23/23 A3002 RMK AO2 LTG DSNT NE AND E
KJZI 071015Z AUTO 00000KT 4SM -RA 24/24 A3002 RMK AO2
KJZI 070955Z AUTO 22004KT 2 1/2SM RA 24/24 A3002 RMK AO2 LTG DSNT SE P0007
KJZI 070935Z AUTO 00000KT 7SM -DZ FEW024 BKN050 BKN065 24/24 A3001 RMK AO2
KJZI 070915Z AUTO 00000KT 9SM VCTS SCT041 BKN060 BKN075 24/24 A3001 RMK AO2 LTG DSNT NE-SE
KJZI 070855Z AUTO 27006KT 6SM -DZ FEW003 SCT025 OVC044 24/24 A3000 RMK AO2 P0002
KJZI 070835Z AUTO 26010KT 8SM -DZ FEW017 BKN025 OVC100 25/24 A3001 RMK AO2 LTG DSNT NE
KJZI 070815Z AUTO 00000KT 10SM FEW030 SCT045 BKN070 26/25 A3000 RMK AO2
KJZI 070755Z AUTO 20004KT 9SM FEW055 BKN065 OVC110 26/25 A3001 RMK AO2
KJZI 070735Z AUTO 17005KT 8SM FEW015 SCT055 OVC110 26/25 A3001 RMK AO2
KJZI 070715Z AUTO 00000KT 8SM SCT024 BKN055 OVC110 26/25 A3001 RMK AO2 LTG DSNT NE AND W
KJZI 070655Z AUTO 00000KT 7SM -DZ SCT022 BKN042 OVC110 26/25 A3002 RMK AO2
KJZI 070635Z AUTO 18004KT 8SM FEW021 SCT049 BKN090 26/25 A3003 RMK AO2
KJZI 070615Z AUTO 16004KT 8SM FEW017 SCT050 OVC110 26/25 A3003 RMK AO2
KJZI 070555Z AUTO 00000KT 9SM FEW060 FEW075 BKN110 26/25 A3003 RMK AO2 LTG DSNT NE
KJZI 070535Z AUTO 17004KT 10SM FEW018 BKN120 26/25 A3004 RMK AO2
KJZI 070515Z AUTO 00000KT 9SM SCT018 BKN120 25/25 A3004 RMK AO2
KJZI 070455Z AUTO 00000KT 8SM CLR 25/25 A3004 RMK AO2
KJZI 070435Z AUTO 00000KT 8SM SCT120 24/24 A3004 RMK AO2
KJZI 070415Z AUTO 00000KT 8SM BKN120 24/24 A3004 RMK AO2
KJZI 070355Z AUTO 00000KT 9SM FEW034 SCT044 BKN120 24/24 A3004 RMK AO2 P0005
KJZI 070335Z AUTO 00000KT 5SM -RA BKN037 BKN045 OVC060 24/24 A3004 RMK AO2
KJZI 070315Z AUTO 00000KT 5SM -DZ 24/24 A3004 RMK AO2
KJZI 070255Z AUTO 00000KT 6SM -RA SCT032 BKN039 OVC070 24/24 A3005 RMK AO2 P0004
KJZI 070235Z AUTO 00000KT 5SM -RA 24/24 A3005 RMK AO2
KJZI 070215Z AUTO 00000KT 3SM -RA 24/23 A3006 RMK AO2 LTG DSNT N-E
KJZI 070155Z AUTO 24005G11KT 4SM -DZ 24/23 A3005 RMK AO2 LTG DSNT E P0003
KJZI 070135Z AUTO 22009G17KT 10SM VCTS SCT018 BKN023 OVC036 26/23 A3005 RMK AO2 LTG DSNT NE AND E AND SW
KJZI 070115Z AUTO 18013KT 9SM SCT019 BKN025 OVC047 28/25 A3004 RMK AO2 LTG DSNT NE
KJZI 070055Z AUTO 18008KT 10SM FEW022 SCT029 BKN048 27/25 A3004 RMK AO2 P0001
KJZI 070035Z AUTO 16007G12KT 27/25 A3003 RMK AO2 LTG DSNT S AND SW
KJZI 070015Z AUTO 16006KT 9SM BKN019 BKN050 28/25 A3003 RMK AO2 LTG DSNT S
KJZI 062355Z AUTO 16006KT 9SM BKN018 OVC024 28/25 A3003 RMK AO2 LTG DSNT S
KJZI 062335Z AUTO 15007KT 9SM BKN018 BKN024 OVC042 28/25 A3003 RMK AO2
KJZI 062315Z AUTO 15005KT 9SM SCT018 28/25 A3003 RMK AO2 LTG DSNT S AND NW
KJZI 062255Z AUTO 15007KT 9SM FEW017 28/24 A3003 RMK AO2
KJZI 062235Z AUTO 16006KT 9SM CLR 28/25 A3003 RMK AO2
KJZI 062215Z AUTO 15006G12KT 8SM CLR 28/25 A3003 RMK AO2
KJZI 062155Z AUTO 15007G14KT 8SM FEW019 SCT024 28/25 A3003 RMK AO2
KJZI 062135Z AUTO 14006G12KT 9SM SCT019 SCT024 SCT032 28/24 A3003 RMK AO2
KJZI 062115Z AUTO 14006G12KT 9SM BKN018 BKN025 BKN032 28/25 A3003 RMK AO2
KJZI 062055Z AUTO 13008KT 9SM BKN019 BKN025 28/25 A3004 RMK AO2
KJZI 062035Z AUTO 13006G11KT 9SM BKN019 BKN024 28/25 A3004 RMK AO2
KJZI 062015Z AUTO 13006G11KT 9SM FEW019 SCT024 28/25 A3005 RMK AO2
KJZI 061955Z AUTO 13009KT 9SM CLR 29/24 A3005 RMK AO2
KJZI 061935Z AUTO 14007KT 9SM CLR 29/25 A3005 RMK AO2 LTG DSNT SW AND W
KJZI 061915Z AUTO 13009KT 8SM CLR 29/24 A3005 RMK AO2
KJZI 061855Z AUTO 11007KT 10SM FEW022 29/24 A3004 RMK AO2
KJZI 061835Z AUTO 11008KT 10SM CLR 29/24 A3004 RMK AO2
KJZI 061815Z AUTO 13007KT 10SM CLR 29/24 A3005 RMK AO2 LTG DSNT SE
KJZI 061755Z AUTO 12007KT 10SM FEW021 FEW027 29/24 A3005 RMK AO2
KJZI 061735Z AUTO 13007KT 9SM SCT020 SCT027 29/25 A3006 RMK AO2
KJZI 061715Z AUTO 13006G11KT 9SM BKN020 BKN027 29/25 A3007 RMK AO2 LTG DSNT N
KJZI 061655Z AUTO VRB06KT 9SM VCTS BKN020 29/25 A3007 RMK AO2 LTG DSNT N AND SE
KJZI 061635Z AUTO 13006KT 9SM FEW019 29/25 A3007 RMK AO2 LTG DSNT N
KJZI 061615Z AUTO 16004KT 9SM CLR 29/24 A3008 RMK AO2
KJZI 061555Z AUTO 16006KT 9SM CLR 29/23 A3008 RMK AO2 LTG DSNT N AND NE
KJZI 061535Z AUTO 00000KT 9SM CLR 29/23 A3008 RMK AO2
KJZI 061515Z AUTO 19004KT 9SM CLR 28/23 A3008 RMK AO2
KJZI 061455Z AUTO 19005KT 9SM FEW075 28/22 A3008 RMK AO2
KJZI 061435Z AUTO 16004KT 9SM SCT075 28/23 A3007 RMK AO2
KJZI 061415Z AUTO 17004KT 9SM FEW020 28/24 A3007 RMK AO2 LTG DSNT NE AND SE
KJZI 061355Z AUTO 19006KT 9SM FEW020 FEW120 29/24 A3006 RMK AO2
KJZI 061335Z AUTO 17005KT 9SM SCT110 28/24 A3005 RMK AO2
KJZI 061315Z AUTO 19004KT 9SM FEW020 BKN100 28/24 A3005 RMK AO2
KJZI 061255Z AUTO 15005KT 9SM SCT090 28/24 A3005 RMK AO2
KJZI 061235Z AUTO 00000KT 9SM FEW018 SCT095 28/24 A3004 RMK AO2
KJZI 061215Z AUTO 00000KT 9SM FEW095 27/25 A3004 RMK AO2
KJZI 061155Z AUTO 00000KT 7SM CLR 27/25 A3004 RMK AO2
KJZI 061135Z AUTO 00000KT 8SM CLR 26/25 A3003 RMK AO2
KJZI 061115Z AUTO 00000KT 8SM CLR 24/24 A3002 RMK AO2
KJZI 061055Z AUTO 00000KT 7SM CLR 24/24 A3001 RMK AO2
KJZI 061035Z AUTO 00000KT 8SM FEW100 24/23 A3000 RMK AO2
KJZI 061015Z AUTO 00000KT 7SM CLR 24/23 A3001 RMK AO2 LTG DSNT E
KJZI 060955Z AUTO 00000KT 9SM CLR 24/23 A3000 RMK AO2 LTG DSNT E
KJZI 060935Z AUTO 00000KT 7SM FEW017 FEW029 FEW039 24/24 A3000 RMK AO2
KJZI 060915Z AUTO 00000KT 7SM SCT018 SCT023 SCT032 24/24 A2999 RMK AO2
KJZI 060855Z AUTO 00000KT 7SM CLR 24/24 A2999 RMK AO2
KJZI 060835Z AUTO 00000KT 8SM CLR 24/24 A2998 RMK AO2
KJZI 060815Z AUTO 00000KT 10SM SCT020 SCT025 SCT034 24/24 A2999 RMK AO2
KJZI 060755Z AUTO 00000KT 9SM FEW021 FEW032 BKN041 25/24 A2998 RMK AO2
KJZI 060735Z AUTO 00000KT 6SM BR SCT042 24/24 A2998 RMK AO2
KJZI 060715Z AUTO 00000KT 6SM BR FEW080 24/24 A2998 RMK AO2
KJZI 060655Z AUTO 00000KT 9SM SCT080 25/24 A2998 RMK AO2
KJZI 060635Z AUTO 00000KT 9SM SCT090 25/24 A2999 RMK AO2
KJZI 060615Z AUTO 18003KT 9SM SCT070 BKN095 BKN110 25/24 A2999 RMK AO2
KJZI 060555Z AUTO 16005KT 10SM SCT070 SCT110 25/24 A3000 RMK AO2
KJZI 060535Z AUTO 16003KT 10SM FEW045 25/24 A3000 RMK AO2
KJZI 060515Z AUTO 00000KT 10SM FEW046 FEW120 25/24 A3000 RMK AO2
KJZI 060455Z AUTO 18004KT 10SM FEW032 BKN048 SCT055 24/23 A3001 RMK AO2 P0004
KJZI 060435Z AUTO 17006KT 9SM SCT036 BKN049 BKN070 24/23 A3001 RMK AO2
KJZI 060415Z AUTO 18008KT 5SM BR SCT021 BKN032 OVC070 25/24 A3001 RMK AO2
KJZI 060355Z AUTO 19004KT 8SM FEW020 SCT035 BKN047 25/24 A3001 RMK AO2
KJZI 060335Z AUTO 21005KT 7SM FEW019 SCT025 OVC044 25/24 A3000 RMK AO2
KJZI 060315Z AUTO 24006KT 9SM VCTS FEW019 SCT026 BKN045 24/23 A3001 RMK AO2 LTG DSNT S
KJZI 060255Z AUTO 00000KT 3SM -RA FEW031 BKN048 OVC095 24/23 A3001 RMK AO2
KJZI 060235Z AUTO 14010G15KT 7SM -RA FEW024 SCT031 BKN041 25/22 A3000 RMK AO2
KJZI 060215Z AUTO 20003KT 10SM FEW035 SCT043 26/23 A2999 RMK AO2
KJZI 060155Z AUTO 19006KT 10SM FEW024 FEW030 SCT047 26/23 A2999 RMK AO2 LTG DSNT S